createdAt,value
2018-02-07T00:01:32.132Z,-2.70
2018-02-07T00:03:59.567Z,-2.80
2018-02-07T00:06:27.791Z,-2.80
2018-02-07T00:08:55.232Z,-2.80
2018-02-07T00:11:22.707Z,-2.80
2018-02-07T00:13:50.163Z,-2.80
2018-02-07T00:16:17.720Z,-2.80
2018-02-07T00:18:45.180Z,-2.90
2018-02-07T00:21:12.733Z,-2.90
2018-02-07T00:23:40.156Z,-2.90
2018-02-07T00:26:08.467Z,-2.90
2018-02-07T00:28:35.912Z,-2.90
2018-02-07T00:31:03.382Z,-2.90
2018-02-07T00:33:30.848Z,-3.00
2018-02-07T00:35:58.312Z,-3.00
2018-02-07T00:38:25.864Z,-3.00
2018-02-07T00:40:53.296Z,-3.00
2018-02-07T00:43:20.788Z,-3.00
2018-02-07T00:45:48.234Z,-3.00
2018-02-07T00:48:15.688Z,-3.00
2018-02-07T00:50:43.148Z,-3.00
2018-02-07T00:53:10.614Z,-3.00
2018-02-07T00:55:38.040Z,-3.00
2018-02-07T00:58:05.514Z,-3.00
2018-02-07T01:00:32.976Z,-3.00
2018-02-07T01:03:00.440Z,-3.00
2018-02-07T01:05:27.883Z,-3.00
2018-02-07T01:07:55.312Z,-3.00
2018-02-07T01:10:23.520Z,-3.00
2018-02-07T01:12:50.976Z,-3.10
2018-02-07T01:15:18.425Z,-3.10
2018-02-07T01:17:45.855Z,-3.10
2018-02-07T01:20:14.062Z,-3.10
2018-02-07T01:22:41.512Z,-3.10
2018-02-07T01:25:09.078Z,-3.10
2018-02-07T01:27:36.544Z,-3.10
2018-02-07T01:30:04.109Z,-3.10
2018-02-07T01:32:31.550Z,-3.10
2018-02-07T01:34:58.986Z,-3.10
2018-02-07T01:37:27.307Z,-3.10
2018-02-07T01:39:54.748Z,-3.10
2018-02-07T01:42:22.179Z,-3.10
2018-02-07T01:44:49.663Z,-3.10
2018-02-07T01:47:17.096Z,-3.10
2018-02-07T01:49:44.673Z,-3.10
2018-02-07T01:52:12.236Z,-3.10
2018-02-07T01:54:39.691Z,-3.20
2018-02-07T01:57:07.108Z,-3.10
2018-02-07T01:59:35.527Z,-3.20
2018-02-07T02:02:02.936Z,-3.20
2018-02-07T02:04:31.168Z,-3.20
2018-02-07T02:06:58.735Z,-3.20
2018-02-07T02:09:26.163Z,-3.20
2018-02-07T02:11:53.587Z,-3.20
2018-02-07T02:14:21.909Z,-3.20
2018-02-07T02:16:49.315Z,-3.20
2018-02-07T02:19:16.926Z,-3.20
2018-02-07T02:21:44.494Z,-3.20
2018-02-07T02:24:12.308Z,-3.20
2018-02-07T02:26:40.508Z,-3.20
2018-02-07T02:29:07.981Z,-3.30
2018-02-07T02:31:35.452Z,-3.20
2018-02-07T02:34:02.916Z,-3.30
2018-02-07T02:36:40.183Z,-3.30
2018-02-07T02:39:07.596Z,-3.30
2018-02-07T02:41:35.823Z,-3.30
2018-02-07T02:44:03.395Z,-3.30
2018-02-07T02:46:30.839Z,-3.30
2018-02-07T02:48:58.275Z,-3.30
2018-02-07T02:51:25.715Z,-3.30
2018-02-07T02:53:53.148Z,-3.30
2018-02-07T02:56:20.683Z,-3.30
2018-02-07T02:58:48.128Z,-3.40
2018-02-07T03:01:15.608Z,-3.40
2018-02-07T03:03:43.141Z,-3.40
2018-02-07T03:06:10.723Z,-3.40
2018-02-07T03:08:38.248Z,-3.40
2018-02-07T03:11:05.720Z,-3.40
2018-02-07T03:13:33.288Z,-3.40
2018-02-07T03:16:00.712Z,-3.40
2018-02-07T03:18:28.197Z,-3.40
2018-02-07T03:20:55.660Z,-3.40
2018-02-07T03:23:23.112Z,-3.40
2018-02-07T03:25:50.555Z,-3.40
2018-02-07T03:28:18.128Z,-3.40
2018-02-07T03:30:45.581Z,-3.40
2018-02-07T03:33:13.036Z,-3.40
2018-02-07T03:35:40.496Z,-3.50
2018-02-07T03:38:07.957Z,-3.50
2018-02-07T03:40:35.408Z,-3.50
2018-02-07T03:43:02.858Z,-3.50
2018-02-07T03:45:30.315Z,-3.50
2018-02-07T03:47:57.724Z,-3.50
2018-02-07T03:50:25.435Z,-3.60
2018-02-07T03:52:52.844Z,-3.60
2018-02-07T03:55:20.359Z,-3.60
2018-02-07T03:57:47.817Z,-3.60
2018-02-07T04:00:15.253Z,-3.60
2018-02-07T04:02:42.676Z,-3.70
2018-02-07T04:05:10.895Z,-3.70
2018-02-07T04:07:38.328Z,-3.70
2018-02-07T04:10:05.820Z,-3.70
2018-02-07T04:12:33.381Z,-3.70
2018-02-07T04:15:00.804Z,-3.70
2018-02-07T04:17:28.233Z,-3.70
2018-02-07T04:19:55.676Z,-3.80
2018-02-07T04:22:23.209Z,-3.70
2018-02-07T04:24:50.668Z,-3.70
2018-02-07T04:27:18.215Z,-3.80
2018-02-07T04:29:45.672Z,-3.70
2018-02-07T04:32:13.136Z,-3.80
2018-02-07T04:34:40.676Z,-3.70
2018-02-07T04:37:08.110Z,-3.80
2018-02-07T04:39:36.327Z,-3.70
2018-02-07T04:42:03.884Z,-3.70
2018-02-07T04:44:31.340Z,-3.80
2018-02-07T04:46:58.897Z,-3.70
2018-02-07T04:49:26.324Z,-3.80
2018-02-07T04:51:54.572Z,-3.80
2018-02-07T04:54:22.092Z,-3.80
2018-02-07T04:56:49.656Z,-3.80
2018-02-07T04:59:17.108Z,-3.80
2018-02-07T05:01:44.568Z,-3.80
2018-02-07T05:04:12.129Z,-3.80
2018-02-07T05:06:39.583Z,-3.80
2018-02-07T05:09:07.044Z,-3.80
2018-02-07T05:11:34.527Z,-3.80
2018-02-07T05:14:01.960Z,-3.80
2018-02-07T05:16:29.396Z,-3.80
2018-02-07T05:18:56.980Z,-3.80
2018-02-07T05:21:24.427Z,-3.90
2018-02-07T05:23:51.884Z,-3.90
2018-02-07T05:26:19.335Z,-3.90
2018-02-07T05:28:46.772Z,-3.90
2018-02-07T05:31:14.207Z,-3.90
2018-02-07T05:33:42.537Z,-3.90
2018-02-07T05:36:09.991Z,-3.90
2018-02-07T05:38:37.508Z,-3.90
2018-02-07T05:41:04.904Z,-3.90
2018-02-07T05:43:32.371Z,-3.90
2018-02-07T05:45:59.915Z,-3.90
2018-02-07T05:48:27.391Z,-3.90
2018-02-07T05:50:54.858Z,-3.90
2018-02-07T05:53:22.403Z,-4.00
2018-02-07T05:55:49.852Z,-3.90
2018-02-07T05:58:17.297Z,-4.00
2018-02-07T06:00:44.783Z,-4.00
2018-02-07T06:03:12.223Z,-4.00
2018-02-07T06:05:39.669Z,-4.00
2018-02-07T06:08:07.100Z,-4.00
2018-02-07T06:10:35.308Z,-4.10
2018-02-07T06:13:02.744Z,-4.10
2018-02-07T06:15:30.188Z,-4.10
2018-02-07T06:17:58.510Z,-4.10
2018-02-07T06:20:25.959Z,-4.10
2018-02-07T06:22:53.397Z,-4.00
2018-02-07T06:25:20.862Z,-4.00
2018-02-07T06:27:48.337Z,-4.10
2018-02-07T06:30:15.812Z,-4.10
2018-02-07T06:32:43.256Z,-4.00
2018-02-07T06:35:10.711Z,-4.00
2018-02-07T06:37:38.164Z,-4.10
2018-02-07T06:40:05.714Z,-4.10
2018-02-07T06:42:33.184Z,-4.10
2018-02-07T06:45:00.626Z,-4.10
2018-02-07T06:47:28.059Z,-4.10
2018-02-07T06:49:55.604Z,-4.10
2018-02-07T06:52:24.844Z,-4.10
2018-02-07T06:54:52.272Z,-4.10
2018-02-07T06:57:20.484Z,-4.20
2018-02-07T06:59:47.930Z,-4.20
2018-02-07T07:02:15.359Z,-4.20
2018-02-07T07:04:43.561Z,-4.20
2018-02-07T07:07:11.009Z,-4.20
2018-02-07T07:09:38.479Z,-4.20
2018-02-07T07:12:05.936Z,-4.20
2018-02-07T07:14:33.389Z,-4.20
2018-02-07T07:17:00.856Z,-4.20
2018-02-07T07:19:28.291Z,-4.20
2018-02-07T07:21:55.719Z,-4.20
2018-02-07T07:24:23.935Z,-4.20
2018-02-07T07:26:51.363Z,-4.20
2018-02-07T07:29:19.671Z,-4.10
2018-02-07T07:31:47.132Z,-4.10
2018-02-07T07:34:14.600Z,-4.10
2018-02-07T07:36:42.029Z,-4.10
2018-02-07T07:39:09.472Z,-4.10
2018-02-07T07:41:36.912Z,-4.10
2018-02-07T07:44:05.143Z,-4.00
2018-02-07T07:46:32.556Z,-4.00
2018-02-07T07:49:00.766Z,-4.00
2018-02-07T07:51:28.224Z,-4.00
2018-02-07T07:53:55.685Z,-3.90
2018-02-07T07:56:23.139Z,-3.90
2018-02-07T07:58:50.616Z,-3.90
2018-02-07T08:01:18.072Z,-3.80
2018-02-07T08:03:45.514Z,-3.80
2018-02-07T08:06:12.944Z,-3.70
2018-02-07T08:08:40.392Z,-3.60
2018-02-07T08:11:07.888Z,-3.60
2018-02-07T08:13:35.313Z,-3.50
2018-02-07T08:16:02.762Z,-3.50
2018-02-07T08:18:30.981Z,-3.30
2018-02-07T08:20:58.437Z,-3.30
2018-02-07T08:23:25.881Z,-3.20
2018-02-07T08:25:53.316Z,-3.20
2018-02-07T08:28:20.812Z,-3.10
2018-02-07T08:30:48.351Z,-3.00
2018-02-07T08:33:15.858Z,-2.90
2018-02-07T08:35:43.473Z,-2.90
2018-02-07T08:38:10.949Z,-2.90
2018-02-07T08:40:38.383Z,-2.80
2018-02-07T08:43:05.819Z,-2.70
2018-02-07T08:45:34.220Z,-2.60
2018-02-07T08:48:01.628Z,-2.60
2018-02-07T08:50:29.850Z,-2.40
2018-02-07T08:52:57.320Z,-2.50
2018-02-07T08:55:24.777Z,-2.40
2018-02-07T08:57:52.208Z,-2.30
2018-02-07T09:00:19.688Z,-2.20
2018-02-07T09:02:47.120Z,-2.10
2018-02-07T09:05:14.593Z,-2.10
2018-02-07T09:07:42.036Z,-2.00
2018-02-07T09:10:09.468Z,-1.90
2018-02-07T09:12:37.665Z,-1.80
2018-02-07T09:15:05.156Z,-1.80
2018-02-07T09:17:32.584Z,-1.70
2018-02-07T09:20:00.026Z,-1.60
2018-02-07T09:22:28.233Z,-1.50
2018-02-07T09:24:55.684Z,-1.40
2018-02-07T09:27:23.141Z,-1.40
2018-02-07T09:29:50.624Z,-1.30
2018-02-07T09:32:18.056Z,-1.20
2018-02-07T09:34:45.527Z,-1.10
2018-02-07T09:37:12.969Z,-1.10
2018-02-07T09:39:40.396Z,-1.00
2018-02-07T09:42:08.619Z,-0.80
2018-02-07T09:44:36.060Z,-0.90
2018-02-07T09:47:03.619Z,-0.80
2018-02-07T09:49:31.041Z,-0.70
2018-02-07T09:52:00.190Z,-0.60
2018-02-07T09:54:27.631Z,-0.60
2018-02-07T09:56:56.110Z,-0.50
2018-02-07T09:59:23.528Z,-0.50
2018-02-07T10:01:51.728Z,-0.30
2018-02-07T10:04:19.164Z,-0.30
2018-02-07T10:06:47.385Z,-0.20
2018-02-07T10:09:14.933Z,-0.20
2018-02-07T10:11:42.492Z,-0.10
2018-02-07T10:14:09.960Z,-0.10
2018-02-07T10:16:37.433Z,0.00
2018-02-07T10:19:04.869Z,0.10
2018-02-07T10:21:32.320Z,0.20
2018-02-07T10:23:59.737Z,0.20
2018-02-07T10:26:28.056Z,0.30
2018-02-07T10:28:55.531Z,0.30
2018-02-07T10:31:22.978Z,0.40
2018-02-07T10:33:50.412Z,0.40
2018-02-07T10:36:17.892Z,0.40
2018-02-07T10:38:45.352Z,0.40
2018-02-07T10:41:12.779Z,0.60
2018-02-07T10:43:40.356Z,0.60
2018-02-07T10:46:07.767Z,0.70
2018-02-07T10:48:35.280Z,0.70
2018-02-07T10:51:02.728Z,0.80
2018-02-07T10:53:30.187Z,0.90
2018-02-07T10:55:57.640Z,0.90
2018-02-07T10:58:25.082Z,0.90
2018-02-07T11:00:52.562Z,1.00
2018-02-07T11:03:20.016Z,1.10
2018-02-07T11:05:47.470Z,1.10
2018-02-07T11:08:14.896Z,1.10
2018-02-07T11:10:43.101Z,1.20
2018-02-07T11:13:10.549Z,1.10
2018-02-07T11:15:37.988Z,1.30
2018-02-07T11:18:06.196Z,1.40
2018-02-07T11:20:33.655Z,1.40
2018-02-07T11:23:01.088Z,1.50
2018-02-07T11:25:28.516Z,1.60
2018-02-07T11:27:56.773Z,1.60
2018-02-07T11:30:24.207Z,1.60
2018-02-07T11:32:51.656Z,1.70
2018-02-07T11:35:19.097Z,1.70
2018-02-07T11:37:46.524Z,1.80
2018-02-07T11:40:14.752Z,1.90
2018-02-07T11:42:42.212Z,1.80
2018-02-07T11:45:09.640Z,1.90
2018-02-07T11:47:37.112Z,1.90
2018-02-07T11:50:04.567Z,2.00
2018-02-07T11:52:32.039Z,2.00
2018-02-07T11:54:59.464Z,2.10
2018-02-07T11:57:26.953Z,2.20
2018-02-07T11:59:54.408Z,2.30
2018-02-07T12:02:21.832Z,2.40
2018-02-07T12:04:49.307Z,2.40
2018-02-07T12:07:16.712Z,2.40
2018-02-07T12:09:44.247Z,2.50
2018-02-07T12:12:11.685Z,2.50
2018-02-07T12:14:39.160Z,2.60
2018-02-07T12:17:07.316Z,3.50
2018-02-07T12:19:34.757Z,2.70
2018-02-07T12:22:02.235Z,2.70
2018-02-07T12:24:29.707Z,2.80
2018-02-07T12:26:57.256Z,2.80
2018-02-07T12:29:24.708Z,2.90
2018-02-07T12:31:52.161Z,2.90
2018-02-07T12:34:19.619Z,2.90
2018-02-07T12:36:47.029Z,2.80
2018-02-07T12:39:15.265Z,2.90
2018-02-07T12:41:42.711Z,2.90
2018-02-07T12:44:10.147Z,2.90
2018-02-07T12:46:37.635Z,2.90
2018-02-07T12:49:05.075Z,2.90
2018-02-07T12:51:32.500Z,2.90
2018-02-07T12:54:00.704Z,3.00
2018-02-07T12:56:28.164Z,3.00
2018-02-07T12:58:55.636Z,3.00
2018-02-07T13:01:23.084Z,3.00
2018-02-07T13:03:50.516Z,3.10
2018-02-07T13:06:17.938Z,3.10
2018-02-07T13:08:45.560Z,3.10
2018-02-07T13:11:13.017Z,3.10
2018-02-07T13:13:40.436Z,3.10
2018-02-07T13:16:08.648Z,3.20
2018-02-07T13:18:36.097Z,3.20
2018-02-07T13:21:03.530Z,3.20
2018-02-07T13:23:31.733Z,3.20
2018-02-07T13:25:59.183Z,3.20
2018-02-07T13:28:26.600Z,3.20
2018-02-07T13:30:54.826Z,3.30
2018-02-07T13:33:22.281Z,3.30
2018-02-07T13:35:49.712Z,3.30
2018-02-07T13:38:17.138Z,3.30
2018-02-07T13:40:46.173Z,3.20
2018-02-07T13:43:13.596Z,3.20
2018-02-07T13:45:41.824Z,3.30
2018-02-07T13:48:09.268Z,3.20
2018-02-07T13:50:36.733Z,3.30
2018-02-07T13:53:04.192Z,3.30
2018-02-07T13:55:31.648Z,3.30
2018-02-07T13:57:59.537Z,3.40
2018-02-07T14:00:27.018Z,3.40
2018-02-07T14:02:54.532Z,3.50
2018-02-07T14:05:22.005Z,3.60
2018-02-07T14:07:49.472Z,3.60
2018-02-07T14:10:16.890Z,3.60
2018-02-07T14:12:44.312Z,3.60
2018-02-07T14:15:12.578Z,3.60
2018-02-07T14:17:39.966Z,3.60
2018-02-07T14:20:07.440Z,3.60
2018-02-07T14:22:34.872Z,3.60
2018-02-07T14:25:02.312Z,3.50
2018-02-07T14:27:30.537Z,3.30
2018-02-07T14:29:57.988Z,3.20
2018-02-07T14:32:25.452Z,3.10
2018-02-07T14:34:52.886Z,3.00
2018-02-07T14:37:20.351Z,2.90
2018-02-07T14:39:47.796Z,2.90
2018-02-07T14:42:15.268Z,2.90
2018-02-07T14:44:42.698Z,2.90
2018-02-07T14:47:10.131Z,2.80
2018-02-07T14:49:38.324Z,2.60
2018-02-07T14:52:05.908Z,2.60
2018-02-07T14:54:33.320Z,2.50
2018-02-07T14:57:01.543Z,2.40
2018-02-07T14:59:28.999Z,2.40
2018-02-07T15:01:56.464Z,2.40
2018-02-07T15:04:23.932Z,2.30
2018-02-07T15:06:58.783Z,2.30
2018-02-07T15:09:26.408Z,2.20
2018-02-07T15:11:53.868Z,2.10
2018-02-07T15:14:21.294Z,2.10
2018-02-07T15:16:48.733Z,2.00
2018-02-07T15:19:16.950Z,2.00
2018-02-07T15:21:44.412Z,1.90
2018-02-07T15:24:11.871Z,1.90
2018-02-07T15:26:39.421Z,1.90
2018-02-07T15:29:06.900Z,1.90
2018-02-07T15:31:34.340Z,1.80
2018-02-07T15:34:01.769Z,1.80
2018-02-07T15:36:29.956Z,1.90
2018-02-07T15:38:57.425Z,1.90
2018-02-07T15:41:24.839Z,2.00
2018-02-07T15:43:52.349Z,2.10
2018-02-07T15:46:19.802Z,2.20
2018-02-07T15:48:47.224Z,2.30
2018-02-07T15:51:15.449Z,2.40
2018-02-07T15:53:42.899Z,2.40
2018-02-07T15:56:10.344Z,2.20
2018-02-07T15:58:37.781Z,2.10
2018-02-07T16:01:05.241Z,2.00
2018-02-07T16:03:32.680Z,1.80
2018-02-07T16:06:00.873Z,1.60
2018-02-07T16:08:28.308Z,1.60
2018-02-07T16:10:56.529Z,1.40
2018-02-07T16:13:23.956Z,1.40
2018-02-07T16:15:51.465Z,1.30
2018-02-07T16:18:19.010Z,1.20
2018-02-07T16:20:46.450Z,1.20
2018-02-07T16:23:13.896Z,1.10
2018-02-07T16:25:41.362Z,1.00
2018-02-07T16:28:08.836Z,1.00
2018-02-07T16:30:36.317Z,0.90
2018-02-07T16:33:03.739Z,0.80
2018-02-07T16:35:31.158Z,0.80
2018-02-07T16:37:59.471Z,0.60
2018-02-07T16:40:26.872Z,0.60
2018-02-07T16:42:55.816Z,0.50
2018-02-07T16:45:23.275Z,0.60
2018-02-07T16:47:50.980Z,0.50
2018-02-07T16:50:18.457Z,0.40
2018-02-07T16:52:46.669Z,0.30
2018-02-07T16:55:14.100Z,0.30
2018-02-07T16:57:41.545Z,0.30
2018-02-07T17:00:09.760Z,0.20
2018-02-07T17:02:37.320Z,0.20
2018-02-07T17:05:04.764Z,0.10
2018-02-07T17:07:32.245Z,0.10
2018-02-07T17:09:59.685Z,0.10
2018-02-07T17:12:27.111Z,0.00
2018-02-07T17:14:55.324Z,-0.10
2018-02-07T17:17:22.755Z,-0.10
2018-02-07T17:19:50.257Z,-0.10
2018-02-07T17:22:17.716Z,-0.20
2018-02-07T17:24:45.148Z,-0.20
2018-02-07T17:27:12.580Z,-0.20
2018-02-07T17:29:40.029Z,-0.30
2018-02-07T17:32:08.236Z,-0.40
2018-02-07T17:34:35.718Z,-0.40
2018-02-07T17:37:03.257Z,-0.40
2018-02-07T17:39:30.660Z,-0.40
2018-02-07T17:41:58.196Z,-0.50
2018-02-07T17:44:25.644Z,-0.50
2018-02-07T17:46:53.081Z,-0.50
2018-02-07T17:49:20.520Z,-0.60
2018-02-07T17:51:47.962Z,-0.60
2018-02-07T17:54:17.120Z,-0.70
2018-02-07T17:56:44.559Z,-0.70
2018-02-07T17:59:12.006Z,-0.70
2018-02-07T18:01:39.473Z,-0.70
2018-02-07T18:04:06.908Z,-0.80
2018-02-07T18:06:34.388Z,-0.80
2018-02-07T18:09:01.939Z,-0.80
2018-02-07T18:11:29.358Z,-0.80
2018-02-07T18:13:57.600Z,-0.90
2018-02-07T18:16:25.074Z,-0.90
2018-02-07T18:18:52.600Z,-0.90
2018-02-07T18:21:20.052Z,-0.90
2018-02-07T18:23:47.484Z,-0.90
2018-02-07T18:26:14.947Z,-0.90
2018-02-07T18:28:42.433Z,-1.00
2018-02-07T18:31:09.880Z,-1.00
2018-02-07T18:33:37.335Z,-1.00
2018-02-07T18:36:04.776Z,-1.00
2018-02-07T18:38:32.254Z,-1.00
2018-02-07T18:40:59.803Z,-1.00
2018-02-07T18:43:27.272Z,-1.00
2018-02-07T18:45:54.720Z,-1.10
2018-02-07T18:48:22.181Z,-1.10
2018-02-07T18:50:49.643Z,-1.10
2018-02-07T18:53:17.064Z,-1.10
2018-02-07T18:55:44.498Z,-1.20
2018-02-07T18:58:12.020Z,-1.20
2018-02-07T19:00:39.454Z,-1.20
2018-02-07T19:03:07.020Z,-1.20
2018-02-07T19:05:34.444Z,-1.30
2018-02-07T19:08:02.640Z,-1.30
2018-02-07T19:10:30.128Z,-1.30
2018-02-07T19:12:57.594Z,-1.30
2018-02-07T19:15:25.133Z,-1.30
2018-02-07T19:17:52.568Z,-1.30
2018-02-07T19:20:20.039Z,-1.40
2018-02-07T19:22:47.456Z,-1.40
2018-02-07T19:25:15.669Z,-1.40
2018-02-07T19:27:43.128Z,-1.50
2018-02-07T19:30:10.558Z,-1.40
2018-02-07T19:32:38.781Z,-1.50
2018-02-07T19:35:06.228Z,-1.50
2018-02-07T19:37:33.717Z,-1.50
2018-02-07T19:40:01.152Z,-1.50
2018-02-07T19:42:28.700Z,-1.50
2018-02-07T19:44:56.185Z,-1.50
2018-02-07T19:47:23.608Z,-1.50
2018-02-07T19:49:51.048Z,-1.50
2018-02-07T19:52:18.517Z,-1.50
2018-02-07T19:54:45.952Z,-1.50
2018-02-07T19:57:13.441Z,-1.50
2018-02-07T19:59:40.870Z,-1.50
2018-02-07T20:02:08.316Z,-1.60
2018-02-07T20:04:36.534Z,-1.50
2018-02-07T20:07:03.974Z,-1.60
2018-02-07T20:09:31.404Z,-1.50
2018-02-07T20:11:59.736Z,-1.60
2018-02-07T20:14:27.176Z,-1.60
2018-02-07T20:16:54.683Z,-1.50
2018-02-07T20:19:22.120Z,-1.50
2018-02-07T20:21:49.643Z,-1.50
2018-02-07T20:24:17.080Z,-1.50
2018-02-07T20:26:44.536Z,-1.40
2018-02-07T20:29:12.031Z,-1.40
2018-02-07T20:31:39.574Z,-1.40
2018-02-07T20:34:07.042Z,-1.40
2018-02-07T20:36:34.471Z,-1.30
2018-02-07T20:39:01.917Z,-1.30
2018-02-07T20:41:30.119Z,-1.30
2018-02-07T20:43:57.578Z,-1.30
2018-02-07T20:46:24.992Z,-1.30
2018-02-07T20:48:52.508Z,-1.30
2018-02-07T20:51:19.968Z,-1.20
2018-02-07T20:53:47.416Z,-1.20
2018-02-07T20:56:14.924Z,-1.20
2018-02-07T20:58:43.148Z,-1.10
2018-02-07T21:01:10.624Z,-1.20
2018-02-07T21:03:38.169Z,-1.10
2018-02-07T21:06:05.632Z,-1.20
2018-02-07T21:08:33.074Z,-1.10
2018-02-07T21:11:00.537Z,-1.10
2018-02-07T21:13:27.961Z,-1.10
2018-02-07T21:15:56.161Z,-1.10
2018-02-07T21:18:23.624Z,-1.10
2018-02-07T21:20:51.064Z,-1.10
2018-02-07T21:23:18.529Z,-1.10
2018-02-07T21:25:46.002Z,-1.00
2018-02-07T21:28:13.460Z,-1.00
2018-02-07T21:30:40.905Z,-1.00
2018-02-07T21:33:08.371Z,-1.00
2018-02-07T21:35:35.859Z,-1.00
2018-02-07T21:38:03.386Z,-1.00
2018-02-07T21:40:30.870Z,-1.00
2018-02-07T21:42:58.444Z,-1.00
2018-02-07T21:45:25.969Z,-1.00
2018-02-07T21:47:53.520Z,-1.00
2018-02-07T21:50:20.959Z,-1.00
2018-02-07T21:52:48.407Z,-1.00
2018-02-07T21:55:16.604Z,-1.00
2018-02-07T21:57:44.056Z,-1.00
2018-02-07T22:00:11.528Z,-0.90
2018-02-07T22:02:39.176Z,-0.90
2018-02-07T22:05:06.633Z,-0.90
2018-02-07T22:07:34.127Z,-0.90
2018-02-07T22:10:01.559Z,-0.90
2018-02-07T22:12:29.008Z,-0.90
2018-02-07T22:14:56.438Z,-0.90
2018-02-07T22:17:23.880Z,-0.90
2018-02-07T22:19:52.084Z,-0.90
2018-02-07T22:22:19.516Z,-0.90
2018-02-07T22:24:47.728Z,-1.00
2018-02-07T22:27:15.204Z,-1.00
2018-02-07T22:29:42.648Z,-1.00
2018-02-07T22:32:10.096Z,-1.00
2018-02-07T22:34:37.524Z,-1.00
2018-02-07T22:37:05.741Z,-1.00
2018-02-07T22:39:33.182Z,-1.00
2018-02-07T22:42:00.610Z,-1.00
2018-02-07T22:44:28.838Z,-1.00
2018-02-07T22:46:56.280Z,-1.00
2018-02-07T22:49:23.742Z,-1.00
2018-02-07T22:51:51.172Z,-1.00
2018-02-07T22:54:18.623Z,-1.00
2018-02-07T22:56:46.206Z,-1.00
2018-02-07T22:59:13.633Z,-1.00
2018-02-07T23:01:41.851Z,-1.10
2018-02-07T23:04:09.300Z,-1.10
2018-02-07T23:06:36.749Z,-1.10
2018-02-07T23:09:04.216Z,-1.20
2018-02-07T23:11:31.766Z,-1.20
2018-02-07T23:13:59.184Z,-1.20
2018-02-07T23:16:27.512Z,-1.20
2018-02-07T23:18:55.088Z,-1.20
2018-02-07T23:21:22.500Z,-1.10
2018-02-07T23:23:49.952Z,-1.10
2018-02-07T23:26:17.459Z,-1.10
2018-02-07T23:28:45.006Z,-1.10
2018-02-07T23:31:12.446Z,-1.10
2018-02-07T23:33:39.919Z,-1.10
2018-02-07T23:36:07.348Z,-1.10
2018-02-07T23:38:34.835Z,-1.10
2018-02-07T23:41:02.274Z,-1.10
2018-02-07T23:43:29.732Z,-1.10
2018-02-07T23:45:57.152Z,-1.10
2018-02-07T23:48:25.351Z,-1.10
2018-02-07T23:50:52.833Z,-1.10
2018-02-07T23:53:20.394Z,-1.10
2018-02-07T23:55:47.824Z,-1.10
2018-02-07T23:58:15.262Z,-1.00
